KBRY/BRY METAR and TAF weather

Enter ICAO airport designator
Station Type Date Time Source
KBRY METAR 2019/05/26 01:15 UTC NOAA

KBRY 260115Z AUTO 00000KT 10SM CLR 25/17 A3007 RMK AO1


Station Type Date Time Source
KBRY Decoded METAR 2019/05/26 01:15 UTC NOAA

Station name not available
May 25, 2019 - 09:15 PM EDT / 2019.05.26 0115 UTC
Wind: Calm:0
Visibility: 10 mile(s):0
Sky conditions: clear
Temperature: 77 F (25 C)
Dew Point: 62 F (17 C)
Relative Humidity: 61%
Pressure (altimeter): 30.07 in. Hg (1018 hPa)
ob: KBRY 260115Z AUTO 00000KT 10SM CLR 25/17 A3007 RMK AO1
cycle: 1

Station Type Date Time Source
KBRY TAF UTC NOAA

Error!

Example: see airport list